Have a Safe July 4th! 

Flight Track Log - Related Links

Times and Time Zones

All times are in EDT time to prevent confusion due to time zone crossing. See the FDX1374 flight status page for this flight to view local times or setup timezone preferences in your user account.

Time Position Orientation Groundspeed Altitude Reporting Facility
EDT Latitude Longitude Course Direction KTS MPH feet Rate Location/Type
Wed 11:40:53 PM 39.7860 -82.9630 222° Southwest 166 191 1,800  Level FlightAware ADS-B
Wed 11:41:16 PM 39.7660 -82.9890 225° Southwest 226 260 3,700 3,882 Climbing FlightAware ADS-B
Wed 11:41:27 PM 39.7590 -83.0020 235° Southwest 246 283 4,000 2,780 Climbing FlightAware ADS-B
Wed 11:41:57 PM 39.7400 -83.0450 240° Southwest 268 308 5,600 3,400 Climbing FlightAware ADS-B
Wed 11:42:27 PM 39.7210 -83.0870 240° Southwest 277 319 7,400 3,625 Climbing FlightAware ADS-B
Wed 11:42:45 PM 39.7100 -83.1160 244° Southwest 282 325 8,500 2,739 Climbing FlightAware ADS-B
Wed 11:43:13 PM 39.6920 -83.1570 240° Southwest 297 342 9,500 1,800 Climbing FlightAware ADS-B
Wed 11:43:25 PM 39.6840 -83.1760 241° Southwest 301 346 9,700 2,036 Climbing FlightAware ADS-B
Wed 11:44:09 PM 39.6500 -83.2460 238° Southwest 325 374 11,400 1,895 Climbing FlightAware ADS-B
Wed 11:44:41 PM 39.6130 -83.2930 224° Southwest 367 422 12,100 2,132 Climbing FlightAware ADS-B
Wed 11:45:25 PM 39.5580 -83.3620 224° Southwest 383 441 14,100 2,571 Climbing FlightAware ADS-B
Wed 11:46:05 PM 39.5050 -83.4270 223° Southwest 402 463 15,700 2,447 Climbing FlightAware ADS-B
Wed 11:46:41 PM 39.4550 -83.4880 223° Southwest 413 475 17,200 2,400 Climbing FlightAware ADS-B
Wed 11:47:25 PM 39.3920 -83.5640 223° Southwest 429 494 18,900 1,487 Climbing FlightAware ADS-B
Wed 11:48:34 PM 39.3000 -83.6750 223° Southwest 438 504 20,000 629 Climbing FlightAware ADS-B
Wed 11:49:10 PM 39.2550 -83.7300 223° Southwest 438 504 20,000  Level FlightAware ADS-B
Wed 11:49:59 PM 39.1930 -83.8040 223° Southwest 438 504 20,000  Level FlightAware ADS-B
Wed 11:50:35 PM 39.1480 -83.8590 223° Southwest 438 504 20,000 4,733 Level FlightAware ADS-B
Wed 11:51:29 PM 39.0160 -84.0220 224° Southwest 482 555 27,100 4,500 Climbing FlightAware ADS-B
Wed 11:52:11 PM 38.9570 -84.0930 223° Southwest 483 556 27,200 1,906 Climbing FlightAware ADS-B
Wed 11:52:54 PM 38.8760 -84.1910 223° Southwest 490 564 29,800 1,871 Climbing FlightAware ADS-B
Wed 11:53:44 PM 38.8070 -84.2730 223° Southwest 485 558 30,100 209 Climbing FlightAware ADS-B
Wed 11:54:20 PM 38.7570 -84.3330 223° Southwest 485 558 30,100  Level FlightAware ADS-B
Wed 11:55:08 PM 38.6900 -84.4130 223° Southwest 485 558 30,100  Level FlightAware ADS-B
Wed 11:55:42 PM 38.6420 -84.4700 223° Southwest 485 558 30,100 4,658 Level FlightAware ADS-B
Wed 11:56:24 PM 38.5520 -84.5760 223° Southwest 482 555 36,000 4,317 Climbing FlightAware ADS-B
Wed 11:57:04 PM 38.4850 -84.6550 223° Southwest 449 517 36,000  Level FlightAware ADS-B
Wed 11:57:54 PM 38.4120 -84.7430 223° Southwest 457 526 36,000  Level FlightAware ADS-B
Wed 11:58:36 PM 38.3540 -84.8110 223° Southwest 459 528 36,000  Level FlightAware ADS-B
Wed 11:59:09 PM 38.2868 -84.8905 223° Southwest 464 534 36,000  Level FlightAware ADS-B
Wed 11:59:53 PM 38.2181 -84.9701 222° Southwest 464 534 36,000  Level FlightAware ADS-B
Thu 12:00:39 AM 38.1500 -85.0500 223° Southwest 464 534 36,000  Level FlightAware ADS-B
Thu 12:01:24 AM 38.0810 -85.1310 223° Southwest 464 534 36,000  Level FlightAware ADS-B
Thu 12:01:38 AM 38.0520 -85.1637 222° Southwest 464 534 36,000  Level FlightAware ADS-B
Thu 12:02:49 AM 37.9450 -85.2880 223° Southwest 464 534 36,000  Level FlightAware ADS-B
Thu 12:03:29 AM 37.8810 -85.3630 223° Southwest 463 533 36,000  Level FlightAware ADS-B
Thu 12:04:09 AM 37.8190 -85.4350 223° Southwest 464 534 36,000  Level FlightAware ADS-B
Thu 12:04:49 AM 37.7570 -85.5060 222° Southwest 464 534 36,000  Level FlightAware ADS-B
Thu 12:05:29 AM 37.6940 -85.5770 222° Southwest 464 534 36,000  Level FlightAware ADS-B
Thu 12:06:09 AM 37.6280 -85.6530 222° Southwest 464 534 36,000  Level FlightAware ADS-B
Thu 12:06:19 AM 37.6064 -85.6770 221° Southwest 464 534 36,000  Level FlightAware ADS-B
Thu 12:06:50 AM 37.5566 -85.7352 223° Southwest 464 534 36,000  Level FlightAware ADS-B
Thu 12:07:29 AM 37.4940 -85.8061 222° Southwest 466 536 36,000  Level FlightAware ADS-B
Thu 12:08:02 AM 37.4416 -85.8663 222° Southwest 467 537 36,000  Level FlightAware ADS-B
Thu 12:08:32 AM 37.3930 -85.9209 222° Southwest 468 539 36,000  Level FlightAware ADS-B
Thu 12:09:04 AM 37.3470 -85.9740 223° Southwest 469 540 36,000  Level FlightAware ADS-B
Thu 12:09:12 AM 37.3292 -85.9938 221° Southwest 469 540 36,000  Level FlightAware ADS-B
Thu 12:09:44 AM 37.2780 -86.0505 221° Southwest 470 541 36,000  Level FlightAware ADS-B
Thu 12:10:14 AM 37.2288 -86.1072 223° Southwest 472 543 36,000  Level FlightAware ADS-B
Thu 12:10:45 AM 37.1781 -86.1637 222° Southwest 472 543 36,000  Level FlightAware ADS-B
Thu 12:11:20 AM 37.1216 -86.2259 221° Southwest 473 544 36,000  Level FlightAware ADS-B
Thu 12:11:51 AM 37.0699 -86.2847 222° Southwest 474 545 36,000  Level FlightAware ADS-B
Thu 12:12:22 AM 37.0203 -86.3395 221° Southwest 474 545 36,000  Level FlightAware ADS-B
Thu 12:12:52 AM 36.9709 -86.3962 223° Southwest 475 547 36,000  Level FlightAware ADS-B
Thu 12:13:18 AM 36.9298 -86.4435 223° Southwest 477 549 36,000  Level FlightAware ADS-B
Thu 12:13:46 AM 36.8883 -86.5010 228° Southwest 479 551 36,000  Level FlightAware ADS-B
Thu 12:14:16 AM 36.8451 -86.5642 230° Southwest 479 551 36,000  Level FlightAware ADS-B
Thu 12:14:46 AM 36.8021 -86.6298 231° Southwest 480 552 36,000  Level FlightAware ADS-B
Thu 12:15:16 AM 36.7588 -86.6933 230° Southwest 481 554 36,000  Level FlightAware ADS-B
Thu 12:15:47 AM 36.7142 -86.7589 230° Southwest 482 555 36,000  Level FlightAware ADS-B
Thu 12:16:21 AM 36.6650 -86.8306 229° Southwest 477 549 36,000  Level FlightAware ADS-B
Thu 12:17:17 AM 36.5880 -86.9440 230° Southwest 467 537 36,000  Level FlightAware ADS-B
Thu 12:17:58 AM 36.5300 -87.0280 229° Southwest 468 539 36,000 -74 Level FlightAware ADS-B
Thu 12:18:38 AM 36.4730 -87.1100 229° Southwest 469 540 35,900 -714 Descending FlightAware ADS-B
Thu 12:19:22 AM 36.4100 -87.2030 230° Southwest 471 542 35,000 -950 Descending FlightAware ADS-B
Thu 12:20:38 AM 36.3058 -87.3594 230° Southwest 484 557 34,000 -441 Descending Memphis Center
Thu 12:21:38 AM 36.2192 -87.4833 229° Southwest 484 557 34,000 63 Level Memphis Center
Thu 12:27:00 AM 35.8460 -88.0040 229° Southwest 473 544 34,400 67 Climbing FlightAware ADS-B
Thu 12:27:38 AM 35.7990 -88.0700 229° Southwest 473 544 34,400  Level FlightAware ADS-B
Thu 12:28:24 AM 35.7430 -88.1500 229° Southwest 473 544 34,400  Level FlightAware ADS-B
Thu 12:29:00 AM 35.6990 -88.2120 229° Southwest 473 544 34,400  Level FlightAware ADS-B
Thu 12:29:48 AM 35.6410 -88.2950 229° Southwest 473 544 34,400 -9,061 Level FlightAware ADS-B
Thu 12:30:38 AM 35.4428 -88.5528 229° Southwest 438 504 19,600 -9,273 Descending Memphis Center
Thu 12:31:38 AM 35.3628 -88.6536 226° Southwest 422 486 17,400 -2,233 Descending Memphis Center
Thu 12:33:38 AM 35.2150 -88.8397 226° Southwest 383 441 12,900 -2,167 Descending Memphis Center
Thu 12:34:38 AM 35.1472 -88.9247 226° Southwest 369 425 10,900 -1,350 Descending Memphis Center
Thu 12:35:38 AM 35.0856 -89.0069 228° Southwest 341 392 10,200 -800 Descending Memphis Center
Thu 12:36:38 AM 35.0361 -89.0839 232° Southwest 301 346 9,300 -1,150 Descending Memphis Center
Thu 12:37:38 AM 35.0372 -89.1803 271° West 277 319 7,900 -1,350 Descending Memphis Center
Thu 12:38:38 AM 35.0403 -89.2867 272° West 282 325 6,600 -900 Descending Memphis Center
Thu 12:39:38 AM 35.0431 -89.3706 272° West 267 307 6,100 -350 Descending Memphis Center
Thu 12:40:38 AM 35.0458 -89.4517 272° West 248 285 5,900 -350 Descending Memphis Center
Thu 12:41:38 AM 35.0483 -89.5353 272° West 243 280 5,400 -750 Descending Memphis Center
Thu 12:42:38 AM 35.0508 -89.6139 272° West 243 280 4,400 -1,050 Descending Memphis Center
Thu 12:43:38 AM 35.0514 -89.6950 271° West 243 280 3,300 -700 Descending Memphis Center
Thu 12:44:38 AM 35.0561 -89.7736 274° West 238 274 3,000 -650 Descending Memphis Center
Thu 12:45:38 AM 35.0564 -89.8447 270° West 225 259 2,000 -909 Descending Memphis Center
Thu 12:46:17 AM 35.0500 -89.8833 259° West 194 223 1,500 -772 Descending KMEM
Thu 12:47:19 AM 35.0500 -89.9333 270° West 126 145 700 -774 Descending KMEM
Thu 12:50:00 AM 35.0333 -89.9667 270° West  Level FlightAware Approximate
Thu 12:57:00 AM 35.0424 -89.9767 270° West  Level Estimated
Thu 12:58:00 AM 35.0424 -89.9767 270° West  Level Estimated
Thu 12:59:00 AM 35.0424 -89.9767 270° West  Level Estimated
Thu 01:00:00 AM 35.0424 -89.9767 270° West  Level Estimated
Thu 01:01:00 AM 35.0424 -89.9767 270° West  Level Estimated
Thu 01:02:00 AM 35.0424 -89.9767 270° West  Level Estimated
Thu 01:03:00 AM 35.0424 -89.9767 270° West  Level Estimated
Thu 01:04:00 AM 35.0424 -89.9767 270° West  Level Estimated
Thu 01:05:00 AM 35.0424 -89.9767 270° West  Level Estimated
Thu 01:06:00 AM 35.0424 -89.9767 270° West  Level Estimated
Thu 01:07:00 AM 35.0424 -89.9767 270° West  Level Estimated

Login

Don't have an account? Register now (free) for customized features, flight alerts, and more!